Rosel, Missouri
Current Conditions -  °F | °C
As of 10:35 AM on Saturday 27 Dec 2014 (Local Time) from KFAM Reporting Station
Overcast Overcast  
Wind Chill: 48°   Ceiling: 300
Heat Index: 48°   Visibility: 2.5mi
Dew Point: 46°   Wind: 0mph
Humidity: 93%   Direction: NA
Pressure: 30.15"   Gusts: NA
Location:  37.6026°N, 90.6627°W
Report Text: KFAM 271635Z AUTO 00000KT 2 1/2SM OVC003 09/08 A3015 RMK AO1 P0001
Loading
Personal Weather Stations






























Interactive Weather Map New forecast layout! Learn more

10-Day Weather Forecast

Advertisements
Track Severe Weather on mobile